createdAt,value
2023-03-26T00:02:06.507Z,9.05
2023-03-26T00:04:38.815Z,9.03
2023-03-26T00:07:10.825Z,9.02
2023-03-26T00:09:41.943Z,9.00
2023-03-26T00:12:33.898Z,8.98
2023-03-26T00:15:07.628Z,8.95
2023-03-26T00:17:38.863Z,8.90
2023-03-26T00:20:10.855Z,8.86
2023-03-26T00:23:03.428Z,8.83
2023-03-26T00:25:35.484Z,8.83
2023-03-26T00:28:08.076Z,8.85
2023-03-26T00:30:42.169Z,8.84
2023-03-26T00:33:26.638Z,8.86
2023-03-26T00:35:59.231Z,8.86
2023-03-26T00:38:40.386Z,8.86
2023-03-26T00:45:29.963Z,8.88
2023-03-26T00:48:02.603Z,8.87
2023-03-26T00:50:33.667Z,8.85
2023-03-26T00:53:04.536Z,8.82
2023-03-26T00:55:37.939Z,8.81
2023-03-26T00:58:13.399Z,8.82
2023-03-26T01:00:57.808Z,8.83
2023-03-26T01:03:30.885Z,8.85
2023-03-26T01:06:36.669Z,8.84
2023-03-26T01:09:17.906Z,8.86
2023-03-26T01:11:51.652Z,8.85
2023-03-26T01:14:29.487Z,8.84
2023-03-26T01:17:04.785Z,8.81
2023-03-26T01:20:13.265Z,8.80
2023-03-26T01:23:58.092Z,8.79
2023-03-26T01:27:01.205Z,8.82
2023-03-26T01:29:57.530Z,8.82
2023-03-26T01:32:34.685Z,8.84
2023-03-26T01:35:28.013Z,8.85
2023-03-26T01:38:41.078Z,8.85
2023-03-26T01:41:30.216Z,8.84
2023-03-26T01:44:18.746Z,8.85
2023-03-26T01:46:50.641Z,8.82
2023-03-26T01:49:22.397Z,8.80
2023-03-26T01:53:03.847Z,8.76
2023-03-26T01:56:13.901Z,8.76
2023-03-26T01:58:53.727Z,8.76
2023-03-26T02:01:55.214Z,8.77
2023-03-26T02:12:31.293Z,8.68
2023-03-26T02:15:06.146Z,8.64
2023-03-26T02:17:40.822Z,8.60
2023-03-26T02:20:14.692Z,8.57
2023-03-26T02:22:46.366Z,8.56
2023-03-26T02:25:35.735Z,8.58
2023-03-26T02:28:06.842Z,8.62
2023-03-26T02:30:40.036Z,8.64
2023-03-26T02:33:15.893Z,8.64
2023-03-26T02:36:02.377Z,8.61
2023-03-26T02:38:35.582Z,8.59
2023-03-26T02:41:08.646Z,8.54
2023-03-26T02:44:26.484Z,8.51
2023-03-26T02:47:03.344Z,8.47
2023-03-26T02:50:12.466Z,8.48
2023-03-26T02:53:31.364Z,8.50
2023-03-26T02:56:23.401Z,8.49
2023-03-26T02:59:22.408Z,8.50
2023-03-26T03:02:40.582Z,8.52
2023-03-26T03:05:39.575Z,8.47
2023-03-26T03:08:29.966Z,8.44
2023-03-26T03:11:15.845Z,8.43
2023-03-26T03:13:48.590Z,8.41
2023-03-26T03:16:22.596Z,8.44
2023-03-26T03:19:02.279Z,8.44
2023-03-26T03:21:43.227Z,8.42
2023-03-26T03:24:14.379Z,8.40
2023-03-26T03:26:50.746Z,8.41
2023-03-26T03:29:43.970Z,8.42
2023-03-26T03:32:37.959Z,8.40
2023-03-26T03:35:09.380Z,8.40
2023-03-26T03:37:40.958Z,8.37
2023-03-26T03:40:12.652Z,8.35
2023-03-26T03:42:58.963Z,8.40
2023-03-26T03:46:17.337Z,8.40
2023-03-26T03:48:52.790Z,8.41
2023-03-26T03:52:19.788Z,8.45
2023-03-26T03:54:51.618Z,8.48
2023-03-26T03:57:46.110Z,8.47
2023-03-26T04:01:04.915Z,8.43
2023-03-26T04:03:59.073Z,8.39
2023-03-26T04:07:17.055Z,8.37
2023-03-26T04:10:30.831Z,8.38
2023-03-26T04:13:17.647Z,8.41
2023-03-26T04:16:08.858Z,8.45
2023-03-26T04:18:45.554Z,8.49
2023-03-26T04:21:18.304Z,8.48
2023-03-26T04:23:49.725Z,8.47
2023-03-26T04:26:43.207Z,8.45
2023-03-26T04:30:02.781Z,8.40
2023-03-26T04:32:35.091Z,8.35
2023-03-26T04:35:07.593Z,8.34
2023-03-26T04:37:44.732Z,8.36
2023-03-26T04:40:51.254Z,8.38
2023-03-26T04:43:35.858Z,8.37
2023-03-26T04:46:25.667Z,8.36
2023-03-26T04:49:05.263Z,8.37
2023-03-26T04:55:37.391Z,8.36
2023-03-26T04:58:16.626Z,8.37
2023-03-26T05:00:56.652Z,8.36
2023-03-26T05:03:32.904Z,8.36
2023-03-26T05:06:07.973Z,8.37
2023-03-26T05:08:42.829Z,8.39
2023-03-26T05:11:19.041Z,8.37
2023-03-26T05:13:57.959Z,8.36
2023-03-26T05:16:30.287Z,8.35
2023-03-26T05:19:05.694Z,8.30
2023-03-26T05:21:38.168Z,8.24
2023-03-26T05:24:31.805Z,8.20
2023-03-26T05:27:05.519Z,8.24
2023-03-26T05:29:36.703Z,8.27
2023-03-26T05:32:08.730Z,8.29
2023-03-26T05:34:41.313Z,8.31
2023-03-26T05:37:12.054Z,8.31
2023-03-26T05:40:29.301Z,8.29
2023-03-26T05:43:05.564Z,8.28
2023-03-26T05:45:38.807Z,8.24
2023-03-26T05:48:29.542Z,8.24
2023-03-26T05:51:29.370Z,8.24
2023-03-26T05:54:23.952Z,8.25
2023-03-26T05:57:12.959Z,8.24
2023-03-26T06:00:05.034Z,8.27
2023-03-26T06:02:50.649Z,8.27
2023-03-26T06:05:59.293Z,8.28
2023-03-26T06:08:40.107Z,8.25
2023-03-26T06:11:32.611Z,8.23
2023-03-26T06:14:04.406Z,8.23
2023-03-26T06:20:39.408Z,8.32
2023-03-26T06:23:58.373Z,8.34
2023-03-26T06:26:38.469Z,8.34
2023-03-26T06:29:16.193Z,8.35
2023-03-26T06:31:57.083Z,8.37
2023-03-26T06:34:53.631Z,8.33
2023-03-26T06:37:24.782Z,8.29
2023-03-26T06:40:22.463Z,8.26
2023-03-26T06:43:34.108Z,8.28
2023-03-26T06:46:24.239Z,8.31
2023-03-26T06:49:21.345Z,8.31
2023-03-26T06:52:16.222Z,8.32
2023-03-26T06:55:32.357Z,8.34
2023-03-26T06:58:28.933Z,8.33
2023-03-26T07:01:26.169Z,8.31
2023-03-26T07:04:15.247Z,8.28
2023-03-26T07:07:05.055Z,8.26
2023-03-26T07:09:54.403Z,8.24
2023-03-26T07:19:57.947Z,8.22
2023-03-26T07:22:30.329Z,8.20
2023-03-26T07:25:21.697Z,8.18
2023-03-26T07:29:03.640Z,8.22
2023-03-26T07:32:17.830Z,8.24
2023-03-26T07:35:46.088Z,8.26
2023-03-26T07:39:38.328Z,8.30
2023-03-26T07:44:06.039Z,8.28
